sensor_id;sensor_type;location;lat;lon;timestamp;temperature;humidity
15178;DHT22;7689;53.612;-2.416;2022-08-03T00:00:40;19.50;99.90
15178;DHT22;7689;53.612;-2.416;2022-08-03T00:03:06;19.60;99.90
15178;DHT22;7689;53.612;-2.416;2022-08-03T00:05:32;19.60;99.90
15178;DHT22;7689;53.612;-2.416;2022-08-03T00:07:59;19.50;99.90
15178;DHT22;7689;53.612;-2.416;2022-08-03T00:10:24;19.60;99.90
15178;DHT22;7689;53.612;-2.416;2022-08-03T00:12:51;19.60;99.90
15178;DHT22;7689;53.612;-2.416;2022-08-03T00:15:17;19.60;99.90
15178;DHT22;7689;53.612;-2.416;2022-08-03T00:17:44;19.50;99.90
15178;DHT22;7689;53.612;-2.416;2022-08-03T00:20:10;19.60;99.90
15178;DHT22;7689;53.612;-2.416;2022-08-03T00:22:36;19.50;99.90
15178;DHT22;7689;53.612;-2.416;2022-08-03T00:25:02;19.50;99.90
15178;DHT22;7689;53.612;-2.416;2022-08-03T00:27:28;19.50;99.90
15178;DHT22;7689;53.612;-2.416;2022-08-03T00:29:53;19.50;99.90
15178;DHT22;7689;53.612;-2.416;2022-08-03T00:32:19;19.40;99.90
15178;DHT22;7689;53.612;-2.416;2022-08-03T00:34:45;19.40;99.90
15178;DHT22;7689;53.612;-2.416;2022-08-03T00:37:11;19.40;99.90
15178;DHT22;7689;53.612;-2.416;2022-08-03T00:39:36;19.30;99.90
15178;DHT22;7689;53.612;-2.416;2022-08-03T00:42:05;19.30;99.90
15178;DHT22;7689;53.612;-2.416;2022-08-03T00:44:37;19.20;99.90
15178;DHT22;7689;53.612;-2.416;2022-08-03T00:47:03;19.20;99.90
15178;DHT22;7689;53.612;-2.416;2022-08-03T00:49:29;19.20;99.90
15178;DHT22;7689;53.612;-2.416;2022-08-03T00:51:55;19.20;99.90
15178;DHT22;7689;53.612;-2.416;2022-08-03T00:54:22;19.20;99.90
15178;DHT22;7689;53.612;-2.416;2022-08-03T00:56:48;19.20;99.90
15178;DHT22;7689;53.612;-2.416;2022-08-03T00:59:15;19.20;99.90
15178;DHT22;7689;53.612;-2.416;2022-08-03T01:01:41;19.10;99.90
15178;DHT22;7689;53.612;-2.416;2022-08-03T01:04:06;19.10;99.90
15178;DHT22;7689;53.612;-2.416;2022-08-03T01:06:59;19.00;99.90
15178;DHT22;7689;53.612;-2.416;2022-08-03T01:09:45;19.00;99.90
15178;DHT22;7689;53.612;-2.416;2022-08-03T01:12:31;18.80;99.90
15178;DHT22;7689;53.612;-2.416;2022-08-03T01:17:58;18.60;99.90
15178;DHT22;7689;53.612;-2.416;2022-08-03T01:20:31;18.60;99.90
15178;DHT22;7689;53.612;-2.416;2022-08-03T01:31:22;18.40;99.90
15178;DHT22;7689;53.612;-2.416;2022-08-03T01:33:56;18.50;99.90
15178;DHT22;7689;53.612;-2.416;2022-08-03T01:36:28;18.40;99.90
15178;DHT22;7689;53.612;-2.416;2022-08-03T01:38:57;18.40;99.90
15178;DHT22;7689;53.612;-2.416;2022-08-03T01:41:32;18.40;99.90
15178;DHT22;7689;53.612;-2.416;2022-08-03T01:44:01;18.40;99.90
15178;DHT22;7689;53.612;-2.416;2022-08-03T01:46:29;18.40;99.90
15178;DHT22;7689;53.612;-2.416;2022-08-03T01:48:56;18.40;99.90
15178;DHT22;7689;53.612;-2.416;2022-08-03T01:51:24;18.40;99.90
15178;DHT22;7689;53.612;-2.416;2022-08-03T01:53:50;18.40;99.90
15178;DHT22;7689;53.612;-2.416;2022-08-03T01:56:19;18.40;99.90
15178;DHT22;7689;53.612;-2.416;2022-08-03T01:58:47;18.40;99.90
15178;DHT22;7689;53.612;-2.416;2022-08-03T02:01:15;18.30;99.90
15178;DHT22;7689;53.612;-2.416;2022-08-03T02:03:42;18.20;99.90
15178;DHT22;7689;53.612;-2.416;2022-08-03T02:06:10;18.30;99.90
15178;DHT22;7689;53.612;-2.416;2022-08-03T02:08:40;18.60;99.90
15178;DHT22;7689;53.612;-2.416;2022-08-03T02:11:07;18.30;99.90
15178;DHT22;7689;53.612;-2.416;2022-08-03T02:13:34;18.30;99.90
15178;DHT22;7689;53.612;-2.416;2022-08-03T02:16:03;18.30;99.90
15178;DHT22;7689;53.612;-2.416;2022-08-03T02:18:31;18.90;99.90
15178;DHT22;7689;53.612;-2.416;2022-08-03T02:21:00;18.20;99.90
15178;DHT22;7689;53.612;-2.416;2022-08-03T02:23:26;18.30;99.90
15178;DHT22;7689;53.612;-2.416;2022-08-03T02:25:56;18.30;99.90
15178;DHT22;7689;53.612;-2.416;2022-08-03T02:28:37;18.30;99.90
15178;DHT22;7689;53.612;-2.416;2022-08-03T02:31:10;18.30;99.90
15178;DHT22;7689;53.612;-2.416;2022-08-03T02:33:42;18.20;99.90
15178;DHT22;7689;53.612;-2.416;2022-08-03T02:36:08;18.20;99.90
15178;DHT22;7689;53.612;-2.416;2022-08-03T02:38:39;18.20;99.90
15178;DHT22;7689;53.612;-2.416;2022-08-03T02:41:14;18.20;99.90
15178;DHT22;7689;53.612;-2.416;2022-08-03T02:43:41;18.20;99.90
15178;DHT22;7689;53.612;-2.416;2022-08-03T02:46:08;18.20;99.90
15178;DHT22;7689;53.612;-2.416;2022-08-03T02:48:40;18.10;99.90
15178;DHT22;7689;53.612;-2.416;2022-08-03T02:51:06;18.00;99.90
15178;DHT22;7689;53.612;-2.416;2022-08-03T02:53:32;18.00;99.90
15178;DHT22;7689;53.612;-2.416;2022-08-03T02:55:59;17.90;99.90
15178;DHT22;7689;53.612;-2.416;2022-08-03T02:58:26;17.90;99.90
15178;DHT22;7689;53.612;-2.416;2022-08-03T03:00:54;17.80;99.90
15178;DHT22;7689;53.612;-2.416;2022-08-03T03:03:21;17.80;99.90
15178;DHT22;7689;53.612;-2.416;2022-08-03T03:05:48;17.70;99.90
15178;DHT22;7689;53.612;-2.416;2022-08-03T03:08:16;17.70;99.90
15178;DHT22;7689;53.612;-2.416;2022-08-03T03:10:42;17.60;99.90
15178;DHT22;7689;53.612;-2.416;2022-08-03T03:13:09;17.60;99.90
15178;DHT22;7689;53.612;-2.416;2022-08-03T03:15:36;18.10;99.90
15178;DHT22;7689;53.612;-2.416;2022-08-03T03:18:04;17.50;99.90
15178;DHT22;7689;53.612;-2.416;2022-08-03T03:20:32;17.40;99.90
15178;DHT22;7689;53.612;-2.416;2022-08-03T03:23:00;17.40;99.90
15178;DHT22;7689;53.612;-2.416;2022-08-03T03:25:29;17.40;99.90
15178;DHT22;7689;53.612;-2.416;2022-08-03T03:27:56;17.60;99.90
15178;DHT22;7689;53.612;-2.416;2022-08-03T03:30:22;17.30;99.90
15178;DHT22;7689;53.612;-2.416;2022-08-03T03:32:47;17.30;99.90
15178;DHT22;7689;53.612;-2.416;2022-08-03T03:35:15;17.30;99.90
15178;DHT22;7689;53.612;-2.416;2022-08-03T03:37:41;17.20;99.90
15178;DHT22;7689;53.612;-2.416;2022-08-03T03:40:07;17.20;99.90
15178;DHT22;7689;53.612;-2.416;2022-08-03T03:42:33;17.20;99.90
15178;DHT22;7689;53.612;-2.416;2022-08-03T03:45:03;17.10;99.90
15178;DHT22;7689;53.612;-2.416;2022-08-03T03:47:29;17.10;99.90
15178;DHT22;7689;53.612;-2.416;2022-08-03T03:49:57;17.10;99.90
15178;DHT22;7689;53.612;-2.416;2022-08-03T03:52:22;17.10;99.90
15178;DHT22;7689;53.612;-2.416;2022-08-03T03:54:48;17.10;99.90
15178;DHT22;7689;53.612;-2.416;2022-08-03T03:57:14;17.10;99.90
15178;DHT22;7689;53.612;-2.416;2022-08-03T03:59:41;17.20;99.90
15178;DHT22;7689;53.612;-2.416;2022-08-03T04:02:07;17.20;99.90
15178;DHT22;7689;53.612;-2.416;2022-08-03T04:04:35;17.10;99.90
15178;DHT22;7689;53.612;-2.416;2022-08-03T04:07:20;17.20;99.90
15178;DHT22;7689;53.612;-2.416;2022-08-03T04:10:11;17.10;99.90
15178;DHT22;7689;53.612;-2.416;2022-08-03T04:12:58;17.20;99.90
15178;DHT22;7689;53.612;-2.416;2022-08-03T04:15:26;17.20;99.90
15178;DHT22;7689;53.612;-2.416;2022-08-03T04:17:55;17.20;99.90
15178;DHT22;7689;53.612;-2.416;2022-08-03T04:20:23;17.10;99.90
15178;DHT22;7689;53.612;-2.416;2022-08-03T04:22:51;17.00;99.90
15178;DHT22;7689;53.612;-2.416;2022-08-03T04:25:20;17.10;99.90
15178;DHT22;7689;53.612;-2.416;2022-08-03T04:27:48;17.10;99.90
15178;DHT22;7689;53.612;-2.416;2022-08-03T04:30:18;17.10;99.90
15178;DHT22;7689;53.612;-2.416;2022-08-03T04:32:44;17.00;99.90
15178;DHT22;7689;53.612;-2.416;2022-08-03T04:35:16;17.00;99.90
15178;DHT22;7689;53.612;-2.416;2022-08-03T04:37:45;17.00;99.90
15178;DHT22;7689;53.612;-2.416;2022-08-03T04:40:29;17.00;99.90
15178;DHT22;7689;53.612;-2.416;2022-08-03T04:42:57;17.00;99.90
15178;DHT22;7689;53.612;-2.416;2022-08-03T04:45:24;17.00;99.90
15178;DHT22;7689;53.612;-2.416;2022-08-03T04:47:51;17.00;99.90
15178;DHT22;7689;53.612;-2.416;2022-08-03T04:50:18;17.00;99.90
15178;DHT22;7689;53.612;-2.416;2022-08-03T04:52:44;17.00;99.90
15178;DHT22;7689;53.612;-2.416;2022-08-03T04:55:10;17.00;99.90
15178;DHT22;7689;53.612;-2.416;2022-08-03T04:57:35;17.10;99.90
15178;DHT22;7689;53.612;-2.416;2022-08-03T05:00:02;17.60;99.90
15178;DHT22;7689;53.612;-2.416;2022-08-03T05:02:29;17.00;99.90
15178;DHT22;7689;53.612;-2.416;2022-08-03T05:04:55;17.10;99.90
15178;DHT22;7689;53.612;-2.416;2022-08-03T05:07:21;17.10;99.90
15178;DHT22;7689;53.612;-2.416;2022-08-03T05:09:46;17.10;99.90
15178;DHT22;7689;53.612;-2.416;2022-08-03T05:12:12;17.10;99.90
15178;DHT22;7689;53.612;-2.416;2022-08-03T05:14:38;17.20;99.90
15178;DHT22;7689;53.612;-2.416;2022-08-03T05:17:05;17.20;99.90
15178;DHT22;7689;53.612;-2.416;2022-08-03T05:19:31;17.30;99.90
15178;DHT22;7689;53.612;-2.416;2022-08-03T05:21:57;17.20;99.90
15178;DHT22;7689;53.612;-2.416;2022-08-03T05:24:22;17.20;99.90
15178;DHT22;7689;53.612;-2.416;2022-08-03T05:26:48;17.20;99.90
15178;DHT22;7689;53.612;-2.416;2022-08-03T05:29:15;17.10;99.90
15178;DHT22;7689;53.612;-2.416;2022-08-03T05:31:41;17.10;99.90
15178;DHT22;7689;53.612;-2.416;2022-08-03T05:34:06;17.20;99.90
15178;DHT22;7689;53.612;-2.416;2022-08-03T05:36:32;17.10;99.90
15178;DHT22;7689;53.612;-2.416;2022-08-03T05:38:58;17.10;99.90
15178;DHT22;7689;53.612;-2.416;2022-08-03T05:41:23;17.10;99.90
15178;DHT22;7689;53.612;-2.416;2022-08-03T05:43:50;17.10;99.90
15178;DHT22;7689;53.612;-2.416;2022-08-03T05:46:16;17.10;99.90
15178;DHT22;7689;53.612;-2.416;2022-08-03T05:48:42;17.20;99.90
15178;DHT22;7689;53.612;-2.416;2022-08-03T05:51:08;17.20;99.90
15178;DHT22;7689;53.612;-2.416;2022-08-03T05:53:40;17.30;99.90
15178;DHT22;7689;53.612;-2.416;2022-08-03T05:56:06;17.30;99.90
15178;DHT22;7689;53.612;-2.416;2022-08-03T05:58:32;17.50;99.90
15178;DHT22;7689;53.612;-2.416;2022-08-03T06:00:58;17.90;99.90
15178;DHT22;7689;53.612;-2.416;2022-08-03T06:03:23;18.30;99.90
15178;DHT22;7689;53.612;-2.416;2022-08-03T06:05:49;18.30;99.90
15178;DHT22;7689;53.612;-2.416;2022-08-03T06:08:15;18.40;99.90
15178;DHT22;7689;53.612;-2.416;2022-08-03T06:10:40;18.30;99.90
15178;DHT22;7689;53.612;-2.416;2022-08-03T06:13:06;18.20;99.90
15178;DHT22;7689;53.612;-2.416;2022-08-03T06:15:32;18.20;99.90
15178;DHT22;7689;53.612;-2.416;2022-08-03T06:17:58;18.10;99.90
15178;DHT22;7689;53.612;-2.416;2022-08-03T06:20:24;17.90;99.90
15178;DHT22;7689;53.612;-2.416;2022-08-03T06:22:49;17.90;99.90
15178;DHT22;7689;53.612;-2.416;2022-08-03T06:25:15;17.70;99.90
15178;DHT22;7689;53.612;-2.416;2022-08-03T06:27:43;17.70;99.90
15178;DHT22;7689;53.612;-2.416;2022-08-03T06:30:10;17.80;99.90
15178;DHT22;7689;53.612;-2.416;2022-08-03T06:32:39;17.80;99.90
15178;DHT22;7689;53.612;-2.416;2022-08-03T06:35:07;17.70;99.90
15178;DHT22;7689;53.612;-2.416;2022-08-03T06:37:47;17.70;99.90
15178;DHT22;7689;53.612;-2.416;2022-08-03T06:40:15;17.60;99.90
15178;DHT22;7689;53.612;-2.416;2022-08-03T06:42:41;17.50;99.90
15178;DHT22;7689;53.612;-2.416;2022-08-03T06:45:07;17.60;99.90
15178;DHT22;7689;53.612;-2.416;2022-08-03T06:47:38;17.60;99.90
15178;DHT22;7689;53.612;-2.416;2022-08-03T06:50:05;17.70;99.90
15178;DHT22;7689;53.612;-2.416;2022-08-03T06:52:32;17.80;99.90
15178;DHT22;7689;53.612;-2.416;2022-08-03T06:54:58;18.00;99.90
15178;DHT22;7689;53.612;-2.416;2022-08-03T06:57:24;18.10;99.90
15178;DHT22;7689;53.612;-2.416;2022-08-03T06:59:49;18.40;99.90
15178;DHT22;7689;53.612;-2.416;2022-08-03T07:02:15;18.90;99.90
15178;DHT22;7689;53.612;-2.416;2022-08-03T07:04:42;19.70;99.90
15178;DHT22;7689;53.612;-2.416;2022-08-03T07:07:08;20.10;99.90
15178;DHT22;7689;53.612;-2.416;2022-08-03T07:09:34;20.90;99.90
15178;DHT22;7689;53.612;-2.416;2022-08-03T07:12:00;21.60;99.90
15178;DHT22;7689;53.612;-2.416;2022-08-03T07:14:26;22.40;99.90
15178;DHT22;7689;53.612;-2.416;2022-08-03T07:16:52;22.80;99.90
15178;DHT22;7689;53.612;-2.416;2022-08-03T07:19:18;22.70;99.90
15178;DHT22;7689;53.612;-2.416;2022-08-03T07:21:43;22.90;99.90
15178;DHT22;7689;53.612;-2.416;2022-08-03T07:24:10;22.90;99.90
15178;DHT22;7689;53.612;-2.416;2022-08-03T07:26:35;23.00;99.90
15178;DHT22;7689;53.612;-2.416;2022-08-03T07:29:01;22.80;99.90
15178;DHT22;7689;53.612;-2.416;2022-08-03T07:31:27;23.20;99.90
15178;DHT22;7689;53.612;-2.416;2022-08-03T07:33:52;23.80;99.90
15178;DHT22;7689;53.612;-2.416;2022-08-03T07:36:19;23.70;99.90
15178;DHT22;7689;53.612;-2.416;2022-08-03T07:38:45;22.60;99.90
15178;DHT22;7689;53.612;-2.416;2022-08-03T07:41:11;22.20;99.90
15178;DHT22;7689;53.612;-2.416;2022-08-03T07:43:39;23.50;99.90
15178;DHT22;7689;53.612;-2.416;2022-08-03T07:46:05;23.50;99.90
15178;DHT22;7689;53.612;-2.416;2022-08-03T07:48:31;23.10;99.90
15178;DHT22;7689;53.612;-2.416;2022-08-03T07:50:57;22.20;99.90
15178;DHT22;7689;53.612;-2.416;2022-08-03T07:53:22;21.40;99.90
15178;DHT22;7689;53.612;-2.416;2022-08-03T07:55:48;20.80;99.90
15178;DHT22;7689;53.612;-2.416;2022-08-03T07:58:14;20.30;99.90
15178;DHT22;7689;53.612;-2.416;2022-08-03T08:00:43;19.90;99.90
15178;DHT22;7689;53.612;-2.416;2022-08-03T08:03:09;19.80;99.90
15178;DHT22;7689;53.612;-2.416;2022-08-03T08:05:35;19.40;99.90
15178;DHT22;7689;53.612;-2.416;2022-08-03T08:08:01;19.20;99.90
15178;DHT22;7689;53.612;-2.416;2022-08-03T08:10:28;19.40;99.90
15178;DHT22;7689;53.612;-2.416;2022-08-03T08:12:53;19.50;99.90
15178;DHT22;7689;53.612;-2.416;2022-08-03T08:15:22;19.50;99.90
15178;DHT22;7689;53.612;-2.416;2022-08-03T08:17:53;19.50;99.90
15178;DHT22;7689;53.612;-2.416;2022-08-03T08:20:27;19.60;99.90
15178;DHT22;7689;53.612;-2.416;2022-08-03T08:22:58;20.00;99.90
15178;DHT22;7689;53.612;-2.416;2022-08-03T08:25:25;20.30;99.90
15178;DHT22;7689;53.612;-2.416;2022-08-03T08:27:51;20.30;99.90
15178;DHT22;7689;53.612;-2.416;2022-08-03T08:30:19;20.20;99.90
15178;DHT22;7689;53.612;-2.416;2022-08-03T08:32:45;20.30;99.90
15178;DHT22;7689;53.612;-2.416;2022-08-03T08:35:11;20.20;99.90
15178;DHT22;7689;53.612;-2.416;2022-08-03T08:37:37;20.20;99.90
15178;DHT22;7689;53.612;-2.416;2022-08-03T08:40:05;20.20;99.90
15178;DHT22;7689;53.612;-2.416;2022-08-03T08:42:31;20.40;99.90
15178;DHT22;7689;53.612;-2.416;2022-08-03T08:44:57;20.60;99.90
15178;DHT22;7689;53.612;-2.416;2022-08-03T08:47:29;20.60;99.90
15178;DHT22;7689;53.612;-2.416;2022-08-03T08:49:57;20.50;99.90
15178;DHT22;7689;53.612;-2.416;2022-08-03T08:52:27;20.20;99.90
15178;DHT22;7689;53.612;-2.416;2022-08-03T08:54:56;20.10;99.90
15178;DHT22;7689;53.612;-2.416;2022-08-03T08:57:27;20.00;99.90
15178;DHT22;7689;53.612;-2.416;2022-08-03T08:59:54;20.40;99.90
15178;DHT22;7689;53.612;-2.416;2022-08-03T09:02:22;21.00;99.90
15178;DHT22;7689;53.612;-2.416;2022-08-03T09:04:49;21.10;99.90
15178;DHT22;7689;53.612;-2.416;2022-08-03T09:07:15;20.80;99.90
15178;DHT22;7689;53.612;-2.416;2022-08-03T09:09:43;20.70;99.90
15178;DHT22;7689;53.612;-2.416;2022-08-03T09:12:09;20.80;99.90
15178;DHT22;7689;53.612;-2.416;2022-08-03T09:17:08;20.30;99.90
15178;DHT22;7689;53.612;-2.416;2022-08-03T09:19:34;20.40;99.90
15178;DHT22;7689;53.612;-2.416;2022-08-03T09:22:12;20.40;99.90
15178;DHT22;7689;53.612;-2.416;2022-08-03T09:25:05;20.50;99.90
15178;DHT22;7689;53.612;-2.416;2022-08-03T09:27:45;20.60;99.90
15178;DHT22;7689;53.612;-2.416;2022-08-03T09:30:13;20.80;99.90
15178;DHT22;7689;53.612;-2.416;2022-08-03T09:32:39;20.90;99.90
15178;DHT22;7689;53.612;-2.416;2022-08-03T09:35:05;21.20;99.90
15178;DHT22;7689;53.612;-2.416;2022-08-03T09:37:30;21.60;99.90
15178;DHT22;7689;53.612;-2.416;2022-08-03T09:39:56;21.70;99.90
15178;DHT22;7689;53.612;-2.416;2022-08-03T09:42:22;21.60;99.90
15178;DHT22;7689;53.612;-2.416;2022-08-03T09:44:49;21.70;99.90
15178;DHT22;7689;53.612;-2.416;2022-08-03T09:47:30;21.90;99.90
15178;DHT22;7689;53.612;-2.416;2022-08-03T09:50:04;21.90;99.90
15178;DHT22;7689;53.612;-2.416;2022-08-03T09:52:33;21.80;99.90
15178;DHT22;7689;53.612;-2.416;2022-08-03T09:54:59;21.90;99.90
15178;DHT22;7689;53.612;-2.416;2022-08-03T09:57:27;21.70;99.90
15178;DHT22;7689;53.612;-2.416;2022-08-03T09:59:53;21.90;99.90
15178;DHT22;7689;53.612;-2.416;2022-08-03T10:02:29;22.20;99.90
15178;DHT22;7689;53.612;-2.416;2022-08-03T10:04:55;22.10;99.90
15178;DHT22;7689;53.612;-2.416;2022-08-03T10:07:22;22.00;99.90
15178;DHT22;7689;53.612;-2.416;2022-08-03T10:10:00;22.10;99.90
15178;DHT22;7689;53.612;-2.416;2022-08-03T10:12:27;22.30;99.90
15178;DHT22;7689;53.612;-2.416;2022-08-03T10:14:54;22.10;99.90
15178;DHT22;7689;53.612;-2.416;2022-08-03T10:17:20;21.70;99.90
15178;DHT22;7689;53.612;-2.416;2022-08-03T10:19:47;21.20;99.90
15178;DHT22;7689;53.612;-2.416;2022-08-03T10:22:15;21.10;99.90
15178;DHT22;7689;53.612;-2.416;2022-08-03T10:24:55;21.40;99.90
15178;DHT22;7689;53.612;-2.416;2022-08-03T10:27:23;22.00;99.90
15178;DHT22;7689;53.612;-2.416;2022-08-03T10:29:54;21.90;99.90
15178;DHT22;7689;53.612;-2.416;2022-08-03T10:32:29;21.90;99.90
15178;DHT22;7689;53.612;-2.416;2022-08-03T10:35:15;21.80;99.90
15178;DHT22;7689;53.612;-2.416;2022-08-03T10:38:03;21.70;99.90
15178;DHT22;7689;53.612;-2.416;2022-08-03T10:40:32;21.60;99.90
15178;DHT22;7689;53.612;-2.416;2022-08-03T10:43:06;21.50;99.90
15178;DHT22;7689;53.612;-2.416;2022-08-03T10:45:35;21.50;99.90
15178;DHT22;7689;53.612;-2.416;2022-08-03T10:48:04;21.60;99.90
15178;DHT22;7689;53.612;-2.416;2022-08-03T10:50:31;21.90;99.90
15178;DHT22;7689;53.612;-2.416;2022-08-03T10:52:58;21.90;99.90
15178;DHT22;7689;53.612;-2.416;2022-08-03T10:55:38;22.00;99.90
15178;DHT22;7689;53.612;-2.416;2022-08-03T11:01:11;22.00;99.90
15178;DHT22;7689;53.612;-2.416;2022-08-03T11:06:25;22.40;99.90
15178;DHT22;7689;53.612;-2.416;2022-08-03T11:11:42;22.80;99.90
15178;DHT22;7689;53.612;-2.416;2022-08-03T11:14:19;22.90;99.90
15178;DHT22;7689;53.612;-2.416;2022-08-03T11:16:49;22.90;99.90
15178;DHT22;7689;53.612;-2.416;2022-08-03T11:19:17;23.00;99.90
15178;DHT22;7689;53.612;-2.416;2022-08-03T11:37:35;22.60;99.90
15178;DHT22;7689;53.612;-2.416;2022-08-03T11:40:01;22.60;99.90
15178;DHT22;7689;53.612;-2.416;2022-08-03T11:44:57;22.90;99.90
15178;DHT22;7689;53.612;-2.416;2022-08-03T11:47:26;22.90;99.90
15178;DHT22;7689;53.612;-2.416;2022-08-03T11:49:57;23.00;99.90
15178;DHT22;7689;53.612;-2.416;2022-08-03T11:52:24;22.80;99.90
15178;DHT22;7689;53.612;-2.416;2022-08-03T11:54:52;22.90;99.90
15178;DHT22;7689;53.612;-2.416;2022-08-03T11:57:31;23.30;99.90
15178;DHT22;7689;53.612;-2.416;2022-08-03T11:59:57;23.30;99.90
15178;DHT22;7689;53.612;-2.416;2022-08-03T12:02:23;23.20;99.90
15178;DHT22;7689;53.612;-2.416;2022-08-03T12:04:57;23.30;99.90
15178;DHT22;7689;53.612;-2.416;2022-08-03T12:07:26;23.10;99.90
15178;DHT22;7689;53.612;-2.416;2022-08-03T12:10:18;23.00;99.90
15178;DHT22;7689;53.612;-2.416;2022-08-03T12:12:54;23.30;99.90
15178;DHT22;7689;53.612;-2.416;2022-08-03T12:15:28;23.20;99.90
15178;DHT22;7689;53.612;-2.416;2022-08-03T12:17:56;23.40;99.90
15178;DHT22;7689;53.612;-2.416;2022-08-03T12:20:27;23.60;99.90
15178;DHT22;7689;53.612;-2.416;2022-08-03T12:22:53;23.50;99.90
15178;DHT22;7689;53.612;-2.416;2022-08-03T12:25:21;23.70;99.90
15178;DHT22;7689;53.612;-2.416;2022-08-03T12:27:48;23.50;99.90
15178;DHT22;7689;53.612;-2.416;2022-08-03T12:30:14;23.60;99.90
15178;DHT22;7689;53.612;-2.416;2022-08-03T12:32:42;23.60;99.90
15178;DHT22;7689;53.612;-2.416;2022-08-03T12:35:09;23.60;99.90
15178;DHT22;7689;53.612;-2.416;2022-08-03T12:37:34;23.50;99.90
15178;DHT22;7689;53.612;-2.416;2022-08-03T12:40:01;23.60;99.90
15178;DHT22;7689;53.612;-2.416;2022-08-03T12:44:55;24.10;99.90
15178;DHT22;7689;53.612;-2.416;2022-08-03T12:47:21;23.90;99.90
15178;DHT22;7689;53.612;-2.416;2022-08-03T12:49:49;23.80;99.90
15178;DHT22;7689;53.612;-2.416;2022-08-03T12:52:16;23.90;99.90
15178;DHT22;7689;53.612;-2.416;2022-08-03T12:54:53;24.00;99.90
15178;DHT22;7689;53.612;-2.416;2022-08-03T12:57:19;23.70;99.90
15178;DHT22;7689;53.612;-2.416;2022-08-03T12:59:45;23.30;99.90
15178;DHT22;7689;53.612;-2.416;2022-08-03T13:02:20;23.10;99.90
15178;DHT22;7689;53.612;-2.416;2022-08-03T13:04:47;23.10;99.90
15178;DHT22;7689;53.612;-2.416;2022-08-03T13:07:14;23.50;99.90
15178;DHT22;7689;53.612;-2.416;2022-08-03T13:09:54;23.80;99.90
15178;DHT22;7689;53.612;-2.416;2022-08-03T13:12:22;23.70;99.90
15178;DHT22;7689;53.612;-2.416;2022-08-03T13:14:51;23.70;99.90
15178;DHT22;7689;53.612;-2.416;2022-08-03T13:17:17;23.50;99.90
15178;DHT22;7689;53.612;-2.416;2022-08-03T13:19:44;23.60;99.90
15178;DHT22;7689;53.612;-2.416;2022-08-03T13:22:12;23.40;99.90
15178;DHT22;7689;53.612;-2.416;2022-08-03T13:24:38;23.40;99.90
15178;DHT22;7689;53.612;-2.416;2022-08-03T13:27:04;23.40;99.90
15178;DHT22;7689;53.612;-2.416;2022-08-03T13:29:32;23.40;99.90
15178;DHT22;7689;53.612;-2.416;2022-08-03T13:31:58;23.20;99.90
15178;DHT22;7689;53.612;-2.416;2022-08-03T13:34:24;23.20;99.90
15178;DHT22;7689;53.612;-2.416;2022-08-03T13:36:52;23.50;99.90
15178;DHT22;7689;53.612;-2.416;2022-08-03T13:39:18;23.50;99.90
15178;DHT22;7689;53.612;-2.416;2022-08-03T13:41:44;23.50;99.90
15178;DHT22;7689;53.612;-2.416;2022-08-03T13:44:10;23.20;99.90
15178;DHT22;7689;53.612;-2.416;2022-08-03T13:46:36;23.40;99.90
15178;DHT22;7689;53.612;-2.416;2022-08-03T13:49:01;23.80;99.90
15178;DHT22;7689;53.612;-2.416;2022-08-03T13:51:27;23.90;99.90
15178;DHT22;7689;53.612;-2.416;2022-08-03T13:53:53;24.00;99.90
15178;DHT22;7689;53.612;-2.416;2022-08-03T13:56:18;24.00;99.90
15178;DHT22;7689;53.612;-2.416;2022-08-03T13:58:44;24.00;99.90
15178;DHT22;7689;53.612;-2.416;2022-08-03T14:01:10;23.80;99.90
15178;DHT22;7689;53.612;-2.416;2022-08-03T14:03:36;23.40;99.90
15178;DHT22;7689;53.612;-2.416;2022-08-03T14:06:02;23.30;99.90
15178;DHT22;7689;53.612;-2.416;2022-08-03T14:08:27;23.40;99.90
15178;DHT22;7689;53.612;-2.416;2022-08-03T14:10:53;23.60;99.90
15178;DHT22;7689;53.612;-2.416;2022-08-03T14:13:19;23.60;99.90
15178;DHT22;7689;53.612;-2.416;2022-08-03T14:15:46;23.60;99.90
15178;DHT22;7689;53.612;-2.416;2022-08-03T14:18:12;23.60;99.90
15178;DHT22;7689;53.612;-2.416;2022-08-03T14:20:37;23.40;99.90
15178;DHT22;7689;53.612;-2.416;2022-08-03T14:23:03;23.50;99.90
15178;DHT22;7689;53.612;-2.416;2022-08-03T14:25:28;23.60;99.90
15178;DHT22;7689;53.612;-2.416;2022-08-03T14:27:55;23.40;99.90
15178;DHT22;7689;53.612;-2.416;2022-08-03T14:30:21;23.20;99.90
15178;DHT22;7689;53.612;-2.416;2022-08-03T14:32:47;23.10;99.90
15178;DHT22;7689;53.612;-2.416;2022-08-03T14:35:13;22.90;99.90
15178;DHT22;7689;53.612;-2.416;2022-08-03T14:37:38;23.10;99.90
15178;DHT22;7689;53.612;-2.416;2022-08-03T14:40:05;23.10;99.90
15178;DHT22;7689;53.612;-2.416;2022-08-03T14:42:30;23.20;99.90
15178;DHT22;7689;53.612;-2.416;2022-08-03T14:44:56;23.40;99.90
15178;DHT22;7689;53.612;-2.416;2022-08-03T14:47:22;23.60;99.90
15178;DHT22;7689;53.612;-2.416;2022-08-03T14:49:47;23.50;99.90
15178;DHT22;7689;53.612;-2.416;2022-08-03T14:52:13;23.40;99.90
15178;DHT22;7689;53.612;-2.416;2022-08-03T14:54:39;23.00;99.90
15178;DHT22;7689;53.612;-2.416;2022-08-03T14:57:04;23.00;99.90
15178;DHT22;7689;53.612;-2.416;2022-08-03T14:59:30;23.00;99.90
15178;DHT22;7689;53.612;-2.416;2022-08-03T15:01:56;23.10;99.90
15178;DHT22;7689;53.612;-2.416;2022-08-03T15:04:21;23.10;99.90
15178;DHT22;7689;53.612;-2.416;2022-08-03T15:06:47;23.20;99.90
15178;DHT22;7689;53.612;-2.416;2022-08-03T15:09:13;23.30;99.90
15178;DHT22;7689;53.612;-2.416;2022-08-03T15:11:39;23.50;99.90
15178;DHT22;7689;53.612;-2.416;2022-08-03T15:14:05;23.70;99.90
15178;DHT22;7689;53.612;-2.416;2022-08-03T15:16:31;23.80;99.90
15178;DHT22;7689;53.612;-2.416;2022-08-03T15:18:57;23.60;99.90
15178;DHT22;7689;53.612;-2.416;2022-08-03T15:21:23;23.40;99.90
15178;DHT22;7689;53.612;-2.416;2022-08-03T15:23:49;23.40;99.90
15178;DHT22;7689;53.612;-2.416;2022-08-03T15:26:14;23.50;99.90
15178;DHT22;7689;53.612;-2.416;2022-08-03T15:28:40;23.40;99.90
15178;DHT22;7689;53.612;-2.416;2022-08-03T15:31:05;23.50;99.90
15178;DHT22;7689;53.612;-2.416;2022-08-03T15:33:31;23.60;99.90
15178;DHT22;7689;53.612;-2.416;2022-08-03T15:35:57;23.30;99.90
15178;DHT22;7689;53.612;-2.416;2022-08-03T15:38:24;23.20;99.90
15178;DHT22;7689;53.612;-2.416;2022-08-03T15:40:50;23.10;99.90
15178;DHT22;7689;53.612;-2.416;2022-08-03T15:43:21;22.90;99.90
15178;DHT22;7689;53.612;-2.416;2022-08-03T15:45:47;22.80;99.90
15178;DHT22;7689;53.612;-2.416;2022-08-03T15:48:12;22.80;99.90
15178;DHT22;7689;53.612;-2.416;2022-08-03T15:50:38;22.70;99.90
15178;DHT22;7689;53.612;-2.416;2022-08-03T15:53:04;22.30;99.90
15178;DHT22;7689;53.612;-2.416;2022-08-03T15:55:30;22.10;99.90
15178;DHT22;7689;53.612;-2.416;2022-08-03T15:57:56;22.10;99.90
15178;DHT22;7689;53.612;-2.416;2022-08-03T16:00:22;22.00;99.90
15178;DHT22;7689;53.612;-2.416;2022-08-03T16:02:48;22.30;99.90
15178;DHT22;7689;53.612;-2.416;2022-08-03T16:05:13;22.40;99.90
15178;DHT22;7689;53.612;-2.416;2022-08-03T16:07:39;22.40;99.90
15178;DHT22;7689;53.612;-2.416;2022-08-03T16:10:17;22.30;99.90
15178;DHT22;7689;53.612;-2.416;2022-08-03T16:12:43;22.30;99.90
15178;DHT22;7689;53.612;-2.416;2022-08-03T16:15:11;22.20;99.90
15178;DHT22;7689;53.612;-2.416;2022-08-03T16:17:38;22.10;99.90